createdAt,value
2022-08-30T00:00:31.016Z,98407.75
2022-08-30T00:03:01.006Z,98399.44
2022-08-30T00:05:30.651Z,98402.53
2022-08-30T00:08:07.817Z,98402.53
2022-08-30T00:10:36.723Z,98395.31
2022-08-30T00:13:07.616Z,98405.16
2022-08-30T00:15:36.587Z,98407.91
2022-08-30T00:18:06.409Z,98408.47
2022-08-30T00:20:37.851Z,98406.88
2022-08-30T00:23:08.352Z,98406.34
2022-08-30T00:25:37.115Z,98406.22
2022-08-30T00:28:06.475Z,98409.06
2022-08-30T00:30:35.053Z,98421.63
2022-08-30T00:33:04.476Z,98416.72
2022-08-30T00:35:33.165Z,98415.97
2022-08-30T00:38:02.587Z,98416.06
2022-08-30T00:40:34.295Z,98411.50
2022-08-30T00:43:06.027Z,98406.66
2022-08-30T00:45:38.743Z,98403.19
2022-08-30T00:48:09.174Z,98396.44
2022-08-30T00:50:44.687Z,98399.47
2022-08-30T00:53:21.283Z,98393.13
2022-08-30T00:55:51.609Z,98397.63
2022-08-30T00:58:26.362Z,98392.09
2022-08-30T01:00:59.092Z,98395.91
2022-08-30T01:03:28.935Z,98403.34
2022-08-30T01:06:00.420Z,98404.94
2022-08-30T01:08:28.938Z,98401.34
2022-08-30T01:11:00.758Z,98410.16
2022-08-30T01:13:29.815Z,98414.31
2022-08-30T01:16:01.051Z,98415.31
2022-08-30T01:18:32.539Z,98417.38
2022-08-30T01:21:13.732Z,98408.78
2022-08-30T01:23:48.971Z,98410.59
2022-08-30T01:26:21.874Z,98401.84
2022-08-30T01:28:56.568Z,98411.66
2022-08-30T01:31:25.543Z,98411.13
2022-08-30T01:33:55.292Z,98408.34
2022-08-30T01:36:26.266Z,98406.13
2022-08-30T01:38:59.380Z,98409.16
2022-08-30T01:41:33.348Z,98409.44
2022-08-30T01:44:06.669Z,98410.66
2022-08-30T01:46:40.693Z,98413.47
2022-08-30T01:49:16.341Z,98412.41
2022-08-30T01:51:46.567Z,98408.53
2022-08-30T01:54:16.866Z,98392.69
2022-08-30T01:56:45.385Z,98392.72
2022-08-30T01:59:14.431Z,98386.63
2022-08-30T02:01:43.823Z,98391.47
2022-08-30T02:04:14.518Z,98394.13
2022-08-30T02:06:44.760Z,98403.50
2022-08-30T02:09:14.480Z,98395.19
2022-08-30T02:11:45.762Z,98398.94
2022-08-30T02:14:14.811Z,98399.06
2022-08-30T02:16:44.381Z,98398.25
2022-08-30T02:19:13.393Z,98391.84
2022-08-30T02:21:43.398Z,98390.44
2022-08-30T02:24:12.097Z,98388.69
2022-08-30T02:26:41.027Z,98389.53
2022-08-30T02:29:11.167Z,98397.47
2022-08-30T02:31:39.819Z,98395.19
2022-08-30T02:34:09.006Z,98398.63
2022-08-30T02:36:39.534Z,98398.63
2022-08-30T02:39:09.033Z,98398.22
2022-08-30T02:41:38.848Z,98390.88
2022-08-30T02:44:08.896Z,98392.19
2022-08-30T02:46:39.636Z,98386.97
2022-08-30T02:49:32.171Z,98379.63
2022-08-30T02:51:59.069Z,98369.25
2022-08-30T02:54:28.563Z,98369.97
2022-08-30T02:56:58.050Z,98380.69
2022-08-30T02:59:26.948Z,98375.25
2022-08-30T03:01:57.659Z,98370.13
2022-08-30T03:04:26.969Z,98363.84
2022-08-30T03:07:14.822Z,98357.94
2022-08-30T03:09:44.314Z,98369.13
2022-08-30T03:12:14.478Z,98358.19
2022-08-30T03:14:43.492Z,98354.34
2022-08-30T03:17:15.667Z,98357.81
2022-08-30T03:19:46.336Z,98355.75
2022-08-30T03:22:15.845Z,98352.09
2022-08-30T03:24:45.393Z,98356.94
2022-08-30T03:27:14.132Z,98356.78
2022-08-30T03:29:44.414Z,98362.25
2022-08-30T03:32:15.272Z,98359.03
2022-08-30T03:34:44.287Z,98357.03
2022-08-30T03:37:13.618Z,98356.66
2022-08-30T03:39:42.836Z,98350.56
2022-08-30T03:42:12.179Z,98347.94
2022-08-30T03:44:41.701Z,98350.38
2022-08-30T03:47:11.444Z,98356.50
2022-08-30T03:49:41.519Z,98356.31
2022-08-30T03:52:10.745Z,98350.81
2022-08-30T03:54:40.837Z,98353.88
2022-08-30T03:57:13.344Z,98354.31
2022-08-30T03:59:49.384Z,98349.66
2022-08-30T04:02:19.252Z,98354.31
2022-08-30T04:04:49.610Z,98349.03
2022-08-30T04:07:19.206Z,98339.50
2022-08-30T04:09:48.651Z,98355.53
2022-08-30T04:12:22.612Z,98338.91
2022-08-30T04:14:52.276Z,98346.25
2022-08-30T04:17:23.691Z,98349.13
2022-08-30T04:19:53.672Z,98348.88
2022-08-30T04:22:23.792Z,98352.34
2022-08-30T04:24:52.363Z,98359.22
2022-08-30T04:27:22.493Z,98358.03
2022-08-30T04:29:51.621Z,98362.09
2022-08-30T04:32:21.057Z,98361.28
2022-08-30T04:34:49.809Z,98361.13
2022-08-30T04:37:19.788Z,98371.09
2022-08-30T04:39:50.883Z,98373.34
2022-08-30T04:42:20.027Z,98376.63
2022-08-30T04:44:51.543Z,98385.34
2022-08-30T04:47:20.501Z,98384.53
2022-08-30T04:49:49.602Z,98389.03
2022-08-30T04:52:19.763Z,98388.25
2022-08-30T04:54:48.445Z,98382.59
2022-08-30T04:57:18.024Z,98383.19
2022-08-30T04:59:48.113Z,98386.00
2022-08-30T05:02:16.948Z,98388.06
2022-08-30T05:04:59.318Z,98391.09
2022-08-30T05:07:31.179Z,98391.47
2022-08-30T05:10:00.735Z,98389.47
2022-08-30T05:12:29.287Z,98392.72
2022-08-30T05:14:58.698Z,98391.69
2022-08-30T05:17:27.802Z,98396.75
2022-08-30T05:19:56.367Z,98397.16
2022-08-30T05:22:24.897Z,98388.06
2022-08-30T05:24:55.372Z,98385.59
2022-08-30T05:27:25.166Z,98391.88
2022-08-30T05:29:53.648Z,98399.56
2022-08-30T05:32:22.810Z,98404.44
2022-08-30T05:34:51.994Z,98400.38
2022-08-30T05:37:21.149Z,98406.66
2022-08-30T05:39:51.971Z,98399.56
2022-08-30T05:42:22.648Z,98399.16
2022-08-30T05:44:53.485Z,98401.56
2022-08-30T05:47:23.329Z,98406.81
2022-08-30T05:49:52.335Z,98403.00
2022-08-30T05:52:21.433Z,98402.75
2022-08-30T05:54:55.732Z,98406.81
2022-08-30T05:57:26.790Z,98400.53
2022-08-30T05:59:55.322Z,98397.47
2022-08-30T06:02:23.952Z,98401.91
2022-08-30T06:04:52.488Z,98394.19
2022-08-30T06:07:22.860Z,98398.84
2022-08-30T06:09:51.980Z,98393.56
2022-08-30T06:12:20.478Z,98391.72
2022-08-30T06:14:51.009Z,98395.72
2022-08-30T06:17:22.215Z,98392.22
2022-08-30T06:19:51.529Z,98400.72
2022-08-30T06:22:20.257Z,98396.22
2022-08-30T06:24:57.993Z,98397.56
2022-08-30T06:27:27.072Z,98390.44
2022-08-30T06:29:57.392Z,98388.97
2022-08-30T06:32:26.667Z,98401.13
2022-08-30T06:34:55.223Z,98395.59
2022-08-30T06:37:29.672Z,98401.81
2022-08-30T06:39:59.669Z,98395.69
2022-08-30T06:42:32.614Z,98401.72
2022-08-30T06:45:11.104Z,98402.47
2022-08-30T06:47:41.628Z,98406.13
2022-08-30T06:50:15.824Z,98403.63
2022-08-30T06:52:47.279Z,98394.63
2022-08-30T06:55:18.006Z,98397.22
2022-08-30T06:57:47.499Z,98399.78
2022-08-30T07:00:18.788Z,98390.78
2022-08-30T07:02:47.500Z,98393.56
2022-08-30T07:05:18.948Z,98397.75
2022-08-30T07:07:47.766Z,98394.00
2022-08-30T07:10:17.310Z,98395.56
2022-08-30T07:12:46.041Z,98400.56
2022-08-30T07:15:20.541Z,98407.16
2022-08-30T07:18:06.266Z,98401.59
2022-08-30T07:20:40.044Z,98406.34
2022-08-30T07:23:11.049Z,98398.94
2022-08-30T07:25:41.411Z,98408.19
2022-08-30T07:28:12.305Z,98405.00
2022-08-30T07:30:43.553Z,98405.50
2022-08-30T07:33:12.101Z,98410.25
2022-08-30T07:35:40.748Z,98400.94
2022-08-30T07:38:13.666Z,98400.03
2022-08-30T07:40:42.815Z,98399.72
2022-08-30T07:43:11.353Z,98399.97
2022-08-30T07:45:42.535Z,98398.84
2022-08-30T07:48:14.158Z,98404.63
2022-08-30T07:50:47.433Z,98401.66
2022-08-30T07:53:16.040Z,98405.59
2022-08-30T07:55:44.607Z,98414.00
2022-08-30T07:58:13.797Z,98403.53
2022-08-30T08:00:43.991Z,98400.50
2022-08-30T08:03:12.893Z,98403.84
2022-08-30T08:05:44.127Z,98399.00
2022-08-30T08:08:14.001Z,98395.22
2022-08-30T08:10:44.085Z,98396.66
2022-08-30T08:13:12.923Z,98393.91
2022-08-30T08:15:44.292Z,98396.44
2022-08-30T08:18:13.087Z,98403.44
2022-08-30T08:20:42.273Z,98410.50
2022-08-30T08:23:10.823Z,98402.41
2022-08-30T08:25:43.079Z,98391.66
2022-08-30T08:28:11.892Z,98394.16
2022-08-30T08:30:47.612Z,98393.25
2022-08-30T08:33:18.237Z,98392.06
2022-08-30T08:35:46.916Z,98392.97
2022-08-30T08:38:16.216Z,98383.22
2022-08-30T08:41:01.958Z,98387.13
2022-08-30T08:43:35.909Z,98385.13
2022-08-30T08:46:16.135Z,98381.50
2022-08-30T08:49:05.506Z,98382.16
2022-08-30T08:51:54.768Z,98377.50
2022-08-30T08:54:33.255Z,98374.72
2022-08-30T08:57:02.705Z,98381.16
2022-08-30T08:59:31.392Z,98372.22
2022-08-30T09:02:16.510Z,98380.03
2022-08-30T09:04:45.787Z,98383.31
2022-08-30T09:07:23.193Z,98386.06
2022-08-30T09:09:52.479Z,98382.44
2022-08-30T09:12:22.032Z,98388.38
2022-08-30T09:14:55.794Z,98381.06
2022-08-30T09:17:25.799Z,98380.88
2022-08-30T09:20:02.570Z,98370.66
2022-08-30T09:22:38.334Z,98372.88
2022-08-30T09:25:24.526Z,98368.78
2022-08-30T09:27:56.012Z,98367.28
2022-08-30T09:30:28.143Z,98368.75
2022-08-30T09:33:01.679Z,98372.34
2022-08-30T09:35:39.001Z,98368.44
2022-08-30T09:38:10.743Z,98366.16
2022-08-30T09:40:46.602Z,98366.28
2022-08-30T09:43:24.306Z,98353.06
2022-08-30T09:46:11.245Z,98346.81
2022-08-30T09:48:47.555Z,98340.50
2022-08-30T09:51:49.122Z,98342.78
2022-08-30T09:54:27.311Z,98328.97
2022-08-30T09:57:13.307Z,98336.78
2022-08-30T09:59:52.358Z,98333.38
2022-08-30T10:03:13.901Z,98335.31
2022-08-30T10:05:58.864Z,98336.69
2022-08-30T10:08:44.867Z,98331.47
2022-08-30T10:11:25.538Z,98329.63
2022-08-30T10:14:33.692Z,98324.06
2022-08-30T10:17:13.606Z,98326.75
2022-08-30T10:20:03.957Z,98321.69
2022-08-30T10:22:40.127Z,98320.69
2022-08-30T10:25:17.987Z,98318.84
2022-08-30T10:27:53.381Z,98322.06
2022-08-30T10:30:23.990Z,98318.34
2022-08-30T10:33:01.669Z,98311.44
2022-08-30T10:35:38.990Z,98312.50
2022-08-30T10:38:19.735Z,98304.50
2022-08-30T10:41:15.155Z,98306.16
2022-08-30T10:43:55.167Z,98317.41
2022-08-30T10:46:33.595Z,98316.63
2022-08-30T10:49:09.945Z,98312.09
2022-08-30T10:51:48.662Z,98303.56
2022-08-30T10:54:32.583Z,98307.06
2022-08-30T10:57:02.071Z,98301.44
2022-08-30T10:59:31.586Z,98306.00
2022-08-30T11:02:51.667Z,98289.97
2022-08-30T11:05:43.777Z,98289.97
2022-08-30T11:08:39.183Z,98291.34
2022-08-30T11:11:28.402Z,98290.53
2022-08-30T11:14:05.807Z,98292.13
2022-08-30T11:16:41.796Z,98281.19
2022-08-30T11:19:21.705Z,98283.31
2022-08-30T11:21:52.041Z,98292.41
2022-08-30T11:24:24.067Z,98279.56
2022-08-30T11:27:03.479Z,98280.34
2022-08-30T11:29:45.454Z,98289.44
2022-08-30T11:32:57.396Z,98281.38
2022-08-30T11:35:48.620Z,98292.34
2022-08-30T11:39:06.311Z,98281.09
2022-08-30T11:41:43.185Z,98273.06
2022-08-30T11:44:32.527Z,98273.34
2022-08-30T11:47:06.899Z,98276.00
2022-08-30T11:50:09.933Z,98268.75
2022-08-30T11:52:59.110Z,98270.34
2022-08-30T11:55:53.373Z,98266.59
2022-08-30T11:58:38.361Z,98260.16
2022-08-30T12:01:41.823Z,98260.38
2022-08-30T12:04:38.117Z,98258.44
2022-08-30T12:07:10.027Z,98254.94
2022-08-30T12:10:22.039Z,98257.84
2022-08-30T12:12:59.583Z,98255.38
2022-08-30T12:15:59.058Z,98256.69
2022-08-30T12:18:43.242Z,98246.50
2022-08-30T12:21:33.414Z,98251.81
2022-08-30T12:24:22.462Z,98241.56
2022-08-30T12:26:53.644Z,98239.94
2022-08-30T12:29:25.388Z,98237.75
2022-08-30T12:31:58.074Z,98236.63
2022-08-30T12:34:35.139Z,98239.78
2022-08-30T12:37:10.770Z,98239.22
2022-08-30T12:39:42.880Z,98237.53
2022-08-30T12:42:22.385Z,98229.97
2022-08-30T12:44:54.947Z,98228.31
2022-08-30T12:47:31.278Z,98233.13
2022-08-30T12:50:02.766Z,98224.50
2022-08-30T12:52:38.375Z,98208.34
2022-08-30T12:55:17.659Z,98217.34
2022-08-30T12:58:01.286Z,98219.47
2022-08-30T13:00:34.329Z,98217.00
2022-08-30T13:03:24.706Z,98210.00
2022-08-30T13:05:57.531Z,98217.13
2022-08-30T13:08:34.554Z,98222.44
2022-08-30T13:11:09.099Z,98225.00
2022-08-30T13:13:51.964Z,98227.13
2022-08-30T13:16:29.565Z,98212.03
2022-08-30T13:19:33.400Z,98203.31
2022-08-30T13:22:05.734Z,98199.19
2022-08-30T13:24:34.424Z,98206.88
2022-08-30T13:27:09.765Z,98208.41
2022-08-30T13:29:38.485Z,98197.88
2022-08-30T13:32:07.349Z,98202.38
2022-08-30T13:34:36.327Z,98203.69
2022-08-30T13:37:44.108Z,98205.00
2022-08-30T13:40:01.273Z,98193.47
2022-08-30T13:42:33.538Z,98193.69
2022-08-30T13:45:02.588Z,98199.84
2022-08-30T13:47:34.876Z,98198.75
2022-08-30T13:50:04.198Z,98200.06
2022-08-30T13:52:34.207Z,98200.06
2022-08-30T13:55:03.729Z,98193.38
2022-08-30T14:00:23.790Z,98195.03
2022-08-30T14:02:57.754Z,98193.47
2022-08-30T14:11:18.663Z,98186.56
2022-08-30T14:16:39.437Z,98188.72
2022-08-30T14:19:08.719Z,98183.16
2022-08-30T14:21:39.033Z,98180.47
2022-08-30T14:24:09.795Z,98170.53
2022-08-30T14:26:43.964Z,98168.91
2022-08-30T14:29:17.964Z,98174.00
2022-08-30T14:31:48.680Z,98167.03
2022-08-30T14:34:23.349Z,98155.78
2022-08-30T14:36:51.938Z,98159.84
2022-08-30T14:39:23.442Z,98170.31
2022-08-30T14:41:56.037Z,98164.94
2022-08-30T14:44:26.396Z,98163.84
2022-08-30T14:46:56.513Z,98161.66
2022-08-30T14:49:26.922Z,98154.41
2022-08-30T14:51:56.215Z,98163.25
2022-08-30T14:54:29.929Z,98155.22
2022-08-30T14:56:59.563Z,98153.81
2022-08-30T14:59:28.337Z,98149.75
2022-08-30T15:01:57.673Z,98148.88
2022-08-30T15:04:26.795Z,98141.84
2022-08-30T15:06:56.444Z,98133.19
2022-08-30T15:09:28.675Z,98137.69
2022-08-30T15:12:01.321Z,98138.59
2022-08-30T15:14:33.372Z,98140.47
2022-08-30T15:17:03.366Z,98133.19
2022-08-30T15:19:34.019Z,98135.28
2022-08-30T15:22:05.314Z,98134.69
2022-08-30T15:24:36.083Z,98136.78
2022-08-30T15:27:05.133Z,98132.50
2022-08-30T15:29:39.062Z,98130.63
2022-08-30T15:32:08.766Z,98129.59
2022-08-30T15:34:38.258Z,98133.09
2022-08-30T15:37:07.829Z,98130.13
2022-08-30T15:39:38.036Z,98121.34
2022-08-30T15:42:09.932Z,98134.19
2022-08-30T15:44:38.897Z,98131.50
2022-08-30T15:47:08.083Z,98125.34
2022-08-30T15:49:36.772Z,98121.84
2022-08-30T15:52:07.947Z,98129.91
2022-08-30T15:54:38.342Z,98121.25
2022-08-30T15:57:07.148Z,98126.63
2022-08-30T15:59:35.696Z,98126.13
2022-08-30T16:02:04.975Z,98124.81
2022-08-30T16:04:34.526Z,98126.50
2022-08-30T16:07:03.150Z,98125.50
2022-08-30T16:09:32.980Z,98120.97
2022-08-30T16:12:05.110Z,98124.25
2022-08-30T16:14:34.184Z,98118.69
2022-08-30T16:17:04.071Z,98115.78
2022-08-30T16:19:33.695Z,98113.09
2022-08-30T16:22:03.107Z,98109.88
2022-08-30T16:24:32.120Z,98107.78
2022-08-30T16:27:03.261Z,98108.91
2022-08-30T16:29:35.958Z,98111.88
2022-08-30T16:32:06.171Z,98107.56
2022-08-30T16:34:35.871Z,98105.19
2022-08-30T16:37:07.758Z,98105.47
2022-08-30T16:39:36.815Z,98118.09
2022-08-30T16:42:08.185Z,98119.22
2022-08-30T16:44:36.778Z,98118.69
2022-08-30T16:47:06.552Z,98116.81
2022-08-30T16:49:37.827Z,98115.50
2022-08-30T16:52:07.177Z,98113.63
2022-08-30T16:54:35.683Z,98116.31
2022-08-30T16:57:06.702Z,98113.91
2022-08-30T16:59:35.470Z,98106.44
2022-08-30T17:02:04.890Z,98106.44
2022-08-30T17:04:33.458Z,98106.22
2022-08-30T17:07:02.157Z,98107.63
2022-08-30T17:09:31.054Z,98111.06
2022-08-30T17:12:00.031Z,98112.47
2022-08-30T17:14:30.678Z,98115.16
2022-08-30T17:17:00.856Z,98112.75
2022-08-30T17:19:31.469Z,98110.34
2022-08-30T17:22:00.599Z,98112.56
2022-08-30T17:24:30.088Z,98110.94
2022-08-30T17:27:01.613Z,98116.91
2022-08-30T17:29:31.558Z,98119.88
2022-08-30T17:32:00.693Z,98125.81
2022-08-30T17:34:29.535Z,98121.28
2022-08-30T17:37:00.186Z,98136.09
2022-08-30T17:39:30.598Z,98128.59
2022-08-30T17:42:00.830Z,98136.44
2022-08-30T17:44:38.110Z,98143.47
2022-08-30T17:47:11.221Z,98139.00
2022-08-30T17:49:40.141Z,98144.13
2022-08-30T17:52:11.549Z,98146.88
2022-08-30T17:54:41.700Z,98142.66
2022-08-30T17:57:11.606Z,98142.69
2022-08-30T17:59:41.990Z,98140.16
2022-08-30T18:02:12.353Z,98138.88
2022-08-30T18:04:42.568Z,98133.59
2022-08-30T18:07:12.451Z,98138.28
2022-08-30T18:09:42.012Z,98138.38
2022-08-30T18:12:13.257Z,98131.75
2022-08-30T18:14:44.858Z,98135.88
2022-08-30T18:17:13.422Z,98139.16
2022-08-30T18:19:46.496Z,98143.81
2022-08-30T18:22:31.201Z,98143.88
2022-08-30T18:25:02.594Z,98148.50
2022-08-30T18:27:34.101Z,98155.81
2022-08-30T18:30:11.863Z,98148.09
2022-08-30T18:32:40.537Z,98150.28
2022-08-30T18:35:10.901Z,98155.75
2022-08-30T18:37:39.556Z,98162.25
2022-08-30T18:40:10.095Z,98163.09
2022-08-30T18:42:47.931Z,98161.22
2022-08-30T18:45:17.941Z,98168.50
2022-08-30T18:47:47.015Z,98169.34
2022-08-30T18:50:21.920Z,98171.00
2022-08-30T18:52:53.949Z,98171.81
2022-08-30T18:55:24.637Z,98172.88
2022-08-30T18:57:53.279Z,98171.31
2022-08-30T19:00:24.152Z,98179.09
2022-08-30T19:02:54.244Z,98176.16
2022-08-30T19:05:24.085Z,98179.63
2022-08-30T19:07:55.177Z,98177.75
2022-08-30T19:10:27.003Z,98184.19
2022-08-30T19:12:56.539Z,98184.19
2022-08-30T19:15:26.941Z,98195.16
2022-08-30T19:17:56.106Z,98194.88
2022-08-30T19:20:26.065Z,98197.53
2022-08-30T19:23:10.945Z,98195.09
2022-08-30T19:25:41.798Z,98199.38
2022-08-30T19:28:11.137Z,98206.03
2022-08-30T19:30:41.518Z,98206.56
2022-08-30T19:33:12.279Z,98204.16
2022-08-30T19:35:41.113Z,98205.72
2022-08-30T19:38:09.623Z,98210.50
2022-08-30T19:40:38.142Z,98201.47
2022-08-30T19:43:07.254Z,98202.25
2022-08-30T19:45:36.359Z,98206.75
2022-08-30T19:48:06.954Z,98204.59
2022-08-30T19:50:36.699Z,98212.06
2022-08-30T19:53:06.605Z,98206.66
2022-08-30T19:55:37.258Z,98208.50
2022-08-30T19:58:05.824Z,98207.38
2022-08-30T20:00:34.440Z,98205.25
2022-08-30T20:03:06.546Z,98212.91
2022-08-30T20:05:36.050Z,98217.72
2022-08-30T20:08:05.610Z,98215.81
2022-08-30T20:10:34.446Z,98212.28
2022-08-30T20:13:03.946Z,98226.69
2022-08-30T20:15:33.780Z,98219.47
2022-08-30T20:18:06.021Z,98221.25
2022-08-30T20:20:49.812Z,98223.59
2022-08-30T20:23:23.209Z,98217.72
2022-08-30T20:25:55.746Z,98218.53
2022-08-30T20:28:26.004Z,98220.84
2022-08-30T20:30:55.950Z,98221.13
2022-08-30T20:33:27.228Z,98226.47
2022-08-30T20:36:00.958Z,98221.03
2022-08-30T20:38:30.092Z,98223.13
2022-08-30T20:41:01.222Z,98233.47
2022-08-30T20:43:31.856Z,98228.38
2022-08-30T20:46:00.385Z,98233.09
2022-08-30T20:48:29.035Z,98227.78
2022-08-30T20:50:59.004Z,98225.63
2022-08-30T20:53:27.989Z,98229.34
2022-08-30T20:55:56.594Z,98222.91
2022-08-30T20:58:25.127Z,98224.72
2022-08-30T21:00:55.141Z,98222.88
2022-08-30T21:03:26.147Z,98224.94
2022-08-30T21:05:58.727Z,98225.44
2022-08-30T21:08:27.956Z,98221.75
2022-08-30T21:10:56.672Z,98218.00
2022-08-30T21:13:25.072Z,98221.16
2022-08-30T21:15:55.251Z,98219.56
2022-08-30T21:18:30.279Z,98226.47
2022-08-30T21:21:00.811Z,98225.34
2022-08-30T21:23:29.998Z,98233.88
2022-08-30T21:26:05.145Z,98227.72
2022-08-30T21:28:33.834Z,98232.22
2022-08-30T21:31:08.364Z,98235.94
2022-08-30T21:33:38.135Z,98240.19
2022-08-30T21:36:27.549Z,98234.28
2022-08-30T21:39:00.464Z,98237.97
2022-08-30T21:41:31.694Z,98231.25
2022-08-30T21:44:03.716Z,98236.31
2022-08-30T21:46:34.356Z,98237.03
2022-08-30T21:49:06.656Z,98244.78
2022-08-30T21:51:39.569Z,98236.00
2022-08-30T21:54:11.049Z,98237.03
2022-08-30T21:56:43.194Z,98243.13
2022-08-30T21:59:13.328Z,98240.47
2022-08-30T22:01:44.397Z,98244.91
2022-08-30T22:04:14.426Z,98248.88
2022-08-30T22:06:50.422Z,98248.06
2022-08-30T22:09:23.768Z,98247.25
2022-08-30T22:11:52.728Z,98247.25
2022-08-30T22:14:22.348Z,98246.44
2022-08-30T22:16:51.642Z,98245.66
2022-08-30T22:19:23.313Z,98253.66
2022-08-30T22:22:01.023Z,98247.75
2022-08-30T22:24:31.984Z,98247.75
2022-08-30T22:27:02.992Z,98247.75
2022-08-30T22:29:31.790Z,98253.03
2022-08-30T22:32:01.181Z,98243.94
2022-08-30T22:34:30.099Z,98256.16
2022-08-30T22:37:00.829Z,98250.84
2022-08-30T22:39:29.443Z,98258.56
2022-08-30T22:41:57.887Z,98262.53
2022-08-30T22:44:26.620Z,98263.59
2022-08-30T22:46:55.255Z,98251.91
2022-08-30T22:49:23.763Z,98264.63
2022-08-30T22:51:53.107Z,98258.78
2022-08-30T22:54:23.867Z,98256.09
2022-08-30T22:56:52.476Z,98255.53
2022-08-30T22:59:24.385Z,98259.25
2022-08-30T23:02:00.934Z,98251.84
2022-08-30T23:04:29.615Z,98260.06
2022-08-30T23:06:58.983Z,98262.97
2022-08-30T23:09:29.100Z,98259.19
2022-08-30T23:11:58.259Z,98249.13
2022-08-30T23:14:27.708Z,98259.50
2022-08-30T23:16:56.250Z,98260.81
2022-08-30T23:19:24.825Z,98259.75
2022-08-30T23:21:54.093Z,98258.16
2022-08-30T23:24:39.970Z,98261.31
2022-08-30T23:27:26.875Z,98263.16
2022-08-30T23:30:12.862Z,98258.06
2022-08-30T23:32:58.781Z,98255.41
2022-08-30T23:35:44.738Z,98254.31
2022-08-30T23:38:31.309Z,98255.59
2022-08-30T23:41:17.419Z,98252.69
2022-08-30T23:44:05.229Z,98257.44
2022-08-30T23:46:51.469Z,98249.47
2022-08-30T23:49:37.666Z,98258.56
2022-08-30T23:52:23.986Z,98252.19
2022-08-30T23:55:09.693Z,98259.13
2022-08-30T23:57:55.663Z,98258.03
